createdAt,value
2022-09-03T00:00:01.034Z,2.35
2022-09-03T00:03:00.171Z,2.38
2022-09-03T00:05:38.864Z,2.22
2022-09-03T00:08:21.338Z,2.67
2022-09-03T00:11:01.449Z,2.35
2022-09-03T00:13:38.397Z,2.38
2022-09-03T00:16:10.296Z,2.58
2022-09-03T00:18:44.368Z,2.75
2022-09-03T00:21:39.925Z,2.83
2022-09-03T00:24:14.136Z,2.30
2022-09-03T00:26:47.127Z,2.38
2022-09-03T00:29:33.777Z,2.55
2022-09-03T00:32:07.686Z,2.35
2022-09-03T00:34:42.095Z,2.58
2022-09-03T00:37:14.347Z,2.47
2022-09-03T00:39:42.706Z,2.63
2022-09-03T00:42:47.524Z,2.63
2022-09-03T00:45:18.748Z,2.47
2022-09-03T00:47:59.200Z,2.60
2022-09-03T00:51:01.038Z,2.35
2022-09-03T00:53:44.574Z,2.80
2022-09-03T00:56:41.116Z,2.50
2022-09-03T00:59:52.579Z,2.55
2022-09-03T01:02:36.049Z,2.80
2022-09-03T01:05:10.632Z,2.90
2022-09-03T01:07:49.147Z,2.45
2022-09-03T01:10:43.727Z,3.00
2022-09-03T01:13:14.575Z,2.60
2022-09-03T01:16:06.675Z,2.35
2022-09-03T01:18:59.540Z,2.97
2022-09-03T01:21:52.158Z,2.70
2022-09-03T01:24:50.111Z,2.80
2022-09-03T01:27:30.060Z,2.80
2022-09-03T01:30:09.289Z,2.70
2022-09-03T01:32:47.235Z,2.60
2022-09-03T01:35:37.302Z,2.65
2022-09-03T01:38:13.163Z,2.80
2022-09-03T01:40:54.650Z,2.70
2022-09-03T01:43:45.466Z,2.83
2022-09-03T01:46:37.687Z,3.28
2022-09-03T01:49:30.571Z,2.95
2022-09-03T01:52:12.530Z,2.83
2022-09-03T01:54:50.456Z,3.25
2022-09-03T01:57:42.012Z,2.97
2022-09-03T02:00:20.162Z,3.53
2022-09-03T02:02:51.435Z,3.30
2022-09-03T02:05:27.487Z,3.33
2022-09-03T02:08:01.016Z,2.95
2022-09-03T02:10:38.875Z,3.00
2022-09-03T02:13:10.198Z,3.10
2022-09-03T02:15:40.869Z,2.83
2022-09-03T02:18:15.024Z,3.20
2022-09-03T02:20:42.654Z,3.00
2022-09-03T02:23:09.714Z,3.05
2022-09-03T02:25:40.332Z,3.15
2022-09-03T02:28:17.270Z,3.35
2022-09-03T02:30:45.314Z,3.10
2022-09-03T02:33:12.563Z,3.13
2022-09-03T02:35:40.754Z,3.13
2022-09-03T02:38:22.919Z,3.25
2022-09-03T02:40:49.872Z,3.33
2022-09-03T02:43:25.896Z,3.30
2022-09-03T02:45:58.407Z,3.13
2022-09-03T02:48:25.877Z,3.00
2022-09-03T02:50:52.869Z,3.20
2022-09-03T02:53:19.698Z,3.72
2022-09-03T02:55:46.438Z,2.90
2022-09-03T02:58:13.464Z,3.55
2022-09-03T03:00:40.161Z,3.63
2022-09-03T03:03:07.506Z,3.45
2022-09-03T03:05:56.017Z,3.20
2022-09-03T03:08:25.998Z,3.70
2022-09-03T03:10:56.292Z,3.17
2022-09-03T03:13:23.441Z,3.67
2022-09-03T03:15:50.255Z,2.92
2022-09-03T03:18:17.570Z,3.30
2022-09-03T03:20:44.595Z,3.10
2022-09-03T03:23:11.729Z,2.92
2022-09-03T03:25:39.864Z,3.25
2022-09-03T03:28:07.398Z,3.25
2022-09-03T03:30:37.185Z,3.10
2022-09-03T03:33:05.020Z,3.25
2022-09-03T03:35:31.936Z,2.97
2022-09-03T03:37:59.658Z,3.20
2022-09-03T03:40:26.939Z,2.72
2022-09-03T03:42:54.716Z,3.15
2022-09-03T03:45:21.480Z,3.20
2022-09-03T03:47:48.260Z,2.72
2022-09-03T03:50:15.392Z,3.15
2022-09-03T03:52:42.098Z,3.13
2022-09-03T03:55:09.108Z,2.83
2022-09-03T03:57:36.873Z,3.00
2022-09-03T04:00:04.510Z,3.13
2022-09-03T04:02:31.258Z,3.10
2022-09-03T04:04:58.083Z,3.25
2022-09-03T04:07:25.797Z,3.22
2022-09-03T04:09:52.503Z,3.03
2022-09-03T04:12:19.323Z,3.20
2022-09-03T04:14:46.088Z,3.10
2022-09-03T04:17:12.869Z,2.80
2022-09-03T04:19:39.579Z,3.25
2022-09-03T04:22:06.283Z,3.42
2022-09-03T04:24:32.974Z,2.90
2022-09-03T04:26:59.631Z,3.28
2022-09-03T04:29:26.426Z,3.03
2022-09-03T04:32:11.517Z,3.90
2022-09-03T04:34:38.238Z,3.00
2022-09-03T04:37:05.061Z,3.38
2022-09-03T04:39:31.875Z,3.42
2022-09-03T04:42:00.083Z,3.20
2022-09-03T04:44:26.957Z,3.47
2022-09-03T04:46:53.652Z,3.10
2022-09-03T04:49:20.733Z,3.00
2022-09-03T04:51:47.416Z,2.80
2022-09-03T04:54:14.222Z,3.05
2022-09-03T04:56:40.940Z,2.92
2022-09-03T04:59:09.636Z,3.25
2022-09-03T05:01:38.826Z,3.05
2022-09-03T05:04:06.759Z,3.00
2022-09-03T05:06:34.643Z,3.35
2022-09-03T05:09:01.868Z,3.33
2022-09-03T05:11:29.169Z,3.38
2022-09-03T05:13:58.164Z,3.45
2022-09-03T05:16:26.901Z,3.10
2022-09-03T05:18:55.311Z,3.55
2022-09-03T05:21:22.778Z,3.58
2022-09-03T05:23:50.967Z,3.47
2022-09-03T05:26:30.400Z,3.67
2022-09-03T05:29:00.156Z,3.67
2022-09-03T05:31:29.213Z,3.78
2022-09-03T05:33:58.640Z,3.60
2022-09-03T05:36:28.523Z,4.13
2022-09-03T05:38:56.033Z,4.25
2022-09-03T05:41:23.730Z,3.90
2022-09-03T05:43:56.131Z,3.78
2022-09-03T05:46:31.685Z,4.28
2022-09-03T05:49:00.379Z,4.63
2022-09-03T05:51:27.189Z,4.05
2022-09-03T05:53:55.547Z,4.20
2022-09-03T05:56:24.981Z,4.38
2022-09-03T05:58:54.154Z,4.13
2022-09-03T06:01:32.663Z,3.78
2022-09-03T06:04:07.525Z,4.20
2022-09-03T06:06:36.848Z,4.00
2022-09-03T06:09:07.037Z,3.85
2022-09-03T06:11:35.492Z,3.80
2022-09-03T06:14:08.532Z,3.90
2022-09-03T06:16:39.132Z,3.83
2022-09-03T06:19:10.222Z,4.35
2022-09-03T06:21:40.534Z,4.65
2022-09-03T06:24:07.483Z,4.28
2022-09-03T06:26:35.274Z,4.10
2022-09-03T06:29:01.970Z,4.10
2022-09-03T06:31:28.798Z,4.60
2022-09-03T06:33:58.542Z,3.92
2022-09-03T06:36:27.701Z,4.20
2022-09-03T06:38:56.841Z,4.20
2022-09-03T06:41:26.263Z,3.72
2022-09-03T06:44:05.003Z,3.55
2022-09-03T06:46:38.879Z,4.10
2022-09-03T06:49:05.696Z,4.25
2022-09-03T06:51:33.567Z,4.50
2022-09-03T06:54:02.634Z,4.20
2022-09-03T06:56:29.765Z,3.85
2022-09-03T06:58:58.341Z,3.90
2022-09-03T07:01:31.590Z,4.20
2022-09-03T07:04:04.368Z,4.32
2022-09-03T07:06:33.757Z,4.05
2022-09-03T07:09:00.495Z,3.67
2022-09-03T07:11:30.895Z,3.70
2022-09-03T07:13:58.855Z,3.97
2022-09-03T07:16:27.983Z,3.67
2022-09-03T07:18:56.134Z,3.58
2022-09-03T07:21:28.693Z,3.03
2022-09-03T07:23:57.258Z,3.03
2022-09-03T07:26:32.520Z,3.25
2022-09-03T07:29:00.855Z,3.05
2022-09-03T07:31:33.571Z,3.20
2022-09-03T07:34:06.001Z,3.20
2022-09-03T07:36:43.104Z,3.60
2022-09-03T07:39:12.226Z,3.20
2022-09-03T07:41:39.696Z,3.22
2022-09-03T07:44:09.130Z,3.10
2022-09-03T07:46:38.040Z,3.17
2022-09-03T07:49:06.437Z,2.72
2022-09-03T07:51:38.456Z,3.70
2022-09-03T07:54:10.697Z,3.30
2022-09-03T07:56:40.259Z,3.00
2022-09-03T07:59:08.019Z,3.22
2022-09-03T08:01:35.766Z,2.92
2022-09-03T08:04:04.369Z,3.00
2022-09-03T08:06:32.858Z,3.25
2022-09-03T08:09:06.054Z,3.15
2022-09-03T08:11:38.836Z,3.60
2022-09-03T08:14:08.022Z,3.08
2022-09-03T08:16:41.952Z,3.08
2022-09-03T08:19:09.412Z,2.90
2022-09-03T08:21:36.871Z,3.25
2022-09-03T08:24:04.162Z,3.38
2022-09-03T08:26:33.206Z,2.90
2022-09-03T08:29:00.798Z,3.00
2022-09-03T08:31:29.282Z,3.30
2022-09-03T08:33:58.284Z,3.13
2022-09-03T08:36:31.162Z,3.75
2022-09-03T08:39:04.042Z,3.30
2022-09-03T08:41:42.515Z,2.72
2022-09-03T08:44:40.025Z,3.15
2022-09-03T08:47:18.712Z,3.45
2022-09-03T08:49:48.449Z,3.17
2022-09-03T08:52:21.027Z,3.17
2022-09-03T08:54:51.614Z,3.13
2022-09-03T08:57:20.949Z,3.40
2022-09-03T08:59:51.941Z,3.42
2022-09-03T09:02:46.637Z,2.90
2022-09-03T09:05:20.297Z,4.45
2022-09-03T09:08:24.880Z,4.13
2022-09-03T09:11:08.672Z,3.63
2022-09-03T09:13:56.687Z,4.10
2022-09-03T09:16:41.656Z,4.60
2022-09-03T09:19:29.291Z,3.42
2022-09-03T09:22:10.376Z,5.05
2022-09-03T09:24:48.231Z,5.10
2022-09-03T09:27:19.678Z,4.45
2022-09-03T09:29:51.531Z,4.40
2022-09-03T09:32:21.806Z,4.57
2022-09-03T09:34:52.299Z,5.40
2022-09-03T09:37:19.918Z,5.57
2022-09-03T09:39:58.965Z,4.72
2022-09-03T09:42:27.264Z,5.13
2022-09-03T09:44:54.017Z,4.40
2022-09-03T09:47:34.597Z,3.83
2022-09-03T09:50:03.145Z,4.35
2022-09-03T09:52:31.155Z,4.40
2022-09-03T09:55:16.259Z,5.45
2022-09-03T09:57:43.014Z,4.70
2022-09-03T10:00:16.111Z,3.83
2022-09-03T10:02:57.181Z,4.40
2022-09-03T10:05:37.822Z,4.65
2022-09-03T10:08:26.298Z,4.97
2022-09-03T10:10:53.018Z,4.70
2022-09-03T10:13:26.701Z,4.47
2022-09-03T10:16:18.739Z,4.15
2022-09-03T10:19:06.870Z,4.50
2022-09-03T10:22:05.236Z,4.70
2022-09-03T10:24:41.525Z,4.10
2022-09-03T10:27:12.156Z,4.03
2022-09-03T10:29:40.794Z,4.60
2022-09-03T10:32:27.475Z,4.10
2022-09-03T10:35:31.278Z,4.30
2022-09-03T10:38:17.240Z,4.40
2022-09-03T10:41:04.807Z,4.80
2022-09-03T10:44:00.104Z,4.43
2022-09-03T10:46:29.762Z,4.18
2022-09-03T10:48:56.514Z,4.10
2022-09-03T10:51:25.508Z,4.97
2022-09-03T10:54:04.257Z,5.30
2022-09-03T10:56:43.078Z,4.93
2022-09-03T10:59:29.251Z,4.00
2022-09-03T11:02:23.886Z,3.72
2022-09-03T11:05:00.535Z,4.30
2022-09-03T11:07:50.522Z,3.97
2022-09-03T11:10:30.834Z,4.28
2022-09-03T11:13:07.776Z,4.20
2022-09-03T11:15:43.241Z,4.97
2022-09-03T11:18:23.015Z,4.30
2022-09-03T11:20:54.836Z,10.00
2022-09-03T11:23:24.702Z,4.13
2022-09-03T11:25:59.474Z,3.20
2022-09-03T11:28:50.278Z,1.58
2022-09-03T11:31:23.999Z,0.90
2022-09-03T11:34:08.380Z,0.40
2022-09-03T11:36:38.720Z,0.50
2022-09-03T11:39:26.571Z,1.25
2022-09-03T11:42:07.032Z,1.20
2022-09-03T11:44:51.517Z,1.83
2022-09-03T11:47:24.424Z,1.17
2022-09-03T11:49:54.098Z,0.60
2022-09-03T11:52:32.883Z,0.60
2022-09-03T11:55:02.354Z,0.45
2022-09-03T11:57:31.757Z,0.47
2022-09-03T12:00:12.440Z,0.73
2022-09-03T12:02:46.482Z,0.60
2022-09-03T12:05:38.125Z,0.35
2022-09-03T12:08:18.216Z,0.40
2022-09-03T12:11:09.593Z,0.40
2022-09-03T12:14:00.615Z,0.30
2022-09-03T12:16:41.452Z,0.40
2022-09-03T12:19:15.797Z,0.43
2022-09-03T12:21:42.499Z,0.40
2022-09-03T12:24:13.569Z,0.80
2022-09-03T12:26:42.609Z,0.47
2022-09-03T12:29:26.649Z,0.40
2022-09-03T12:31:57.052Z,0.70
2022-09-03T12:34:25.792Z,0.45
2022-09-03T12:36:54.186Z,0.50
2022-09-03T12:42:19.706Z,0.43
2022-09-03T12:44:46.550Z,0.50
2022-09-03T12:50:11.218Z,0.60
2022-09-03T12:52:59.427Z,0.50
2022-09-03T12:55:42.813Z,0.30
2022-09-03T12:58:19.177Z,0.40
2022-09-03T13:00:51.904Z,0.38
2022-09-03T13:03:44.498Z,0.50
2022-09-03T13:06:14.743Z,0.32
2022-09-03T13:09:02.327Z,0.20
2022-09-03T13:11:33.104Z,0.43
2022-09-03T13:14:08.251Z,0.60
2022-09-03T13:16:47.151Z,0.40
2022-09-03T13:19:59.529Z,0.40
2022-09-03T13:22:50.672Z,0.63
2022-09-03T13:25:22.984Z,0.50
2022-09-03T13:28:14.614Z,0.50
2022-09-03T13:30:58.441Z,0.63
2022-09-03T13:33:33.368Z,0.50
2022-09-03T13:36:08.386Z,0.60
2022-09-03T13:38:41.938Z,0.70
2022-09-03T13:41:41.215Z,0.60
2022-09-03T13:44:32.216Z,0.60
2022-09-03T13:47:11.854Z,0.75
2022-09-03T13:50:22.241Z,0.40
2022-09-03T13:53:30.556Z,0.60
2022-09-03T13:56:05.217Z,0.60
2022-09-03T13:58:43.165Z,0.73
2022-09-03T14:01:48.744Z,0.70
2022-09-03T14:04:24.322Z,0.70
2022-09-03T14:07:01.925Z,0.90
2022-09-03T14:10:14.898Z,0.80
2022-09-03T14:12:49.243Z,0.77
2022-09-03T14:15:29.636Z,0.63
2022-09-03T14:18:23.798Z,0.85
2022-09-03T14:21:02.956Z,0.98
2022-09-03T14:23:51.690Z,1.00
2022-09-03T14:26:39.646Z,0.82
2022-09-03T14:29:12.651Z,0.63
2022-09-03T14:31:57.281Z,0.80
2022-09-03T14:34:55.201Z,0.63
2022-09-03T14:37:50.063Z,0.90
2022-09-03T14:40:26.620Z,1.00
2022-09-03T14:43:01.850Z,0.82
2022-09-03T14:45:56.545Z,0.70
2022-09-03T14:48:40.149Z,0.82
2022-09-03T14:51:44.277Z,0.52
2022-09-03T14:54:29.029Z,0.93
2022-09-03T14:57:33.500Z,0.70
2022-09-03T15:00:18.570Z,0.77
2022-09-03T15:02:53.203Z,0.50
2022-09-03T15:05:38.484Z,0.80
2022-09-03T15:08:18.531Z,0.65
2022-09-03T15:10:50.295Z,0.50
2022-09-03T15:13:50.295Z,0.70
2022-09-03T15:16:56.561Z,0.80
2022-09-03T15:19:46.418Z,0.70
2022-09-03T15:22:49.765Z,0.68
2022-09-03T15:25:42.192Z,0.60
2022-09-03T15:28:17.692Z,0.90
2022-09-03T15:31:01.123Z,0.57
2022-09-03T15:33:52.417Z,0.70
2022-09-03T15:36:39.112Z,0.80
2022-09-03T15:39:13.602Z,0.77
2022-09-03T15:42:04.863Z,0.70
2022-09-03T15:44:48.293Z,0.90
2022-09-03T15:47:41.245Z,0.70
2022-09-03T15:51:01.822Z,0.88
2022-09-03T15:53:39.616Z,1.00
2022-09-03T15:56:13.520Z,0.80
2022-09-03T15:59:07.164Z,0.93
2022-09-03T16:01:59.646Z,1.02
2022-09-03T16:04:45.608Z,0.90
2022-09-03T16:07:30.436Z,0.70
2022-09-03T16:10:25.968Z,0.70
2022-09-03T16:13:22.866Z,0.70
2022-09-03T16:16:10.799Z,0.68
2022-09-03T16:18:50.010Z,1.02
2022-09-03T16:21:22.823Z,0.90
2022-09-03T16:24:02.575Z,0.98
2022-09-03T16:27:11.241Z,0.80
2022-09-03T16:29:40.228Z,1.00
2022-09-03T16:32:27.197Z,1.00
2022-09-03T16:34:53.921Z,0.90
2022-09-03T16:37:45.905Z,1.08
2022-09-03T16:40:26.691Z,1.75
2022-09-03T16:43:39.652Z,1.40
2022-09-03T16:46:45.072Z,1.73
2022-09-03T16:49:33.678Z,1.40
2022-09-03T16:52:37.542Z,1.42
2022-09-03T16:55:25.402Z,1.60
2022-09-03T16:58:13.447Z,1.90
2022-09-03T17:01:17.477Z,1.50
2022-09-03T17:03:48.189Z,1.83
2022-09-03T17:07:12.246Z,1.92
2022-09-03T17:09:50.891Z,1.02
2022-09-03T17:12:37.404Z,1.52
2022-09-03T17:15:25.521Z,1.55
2022-09-03T17:18:28.660Z,1.70
2022-09-03T17:21:14.346Z,1.50
2022-09-03T17:24:33.565Z,1.80
2022-09-03T17:27:21.038Z,1.38
2022-09-03T17:30:20.434Z,1.30
2022-09-03T17:33:05.330Z,1.20
2022-09-03T17:35:38.137Z,1.80
2022-09-03T17:38:21.843Z,2.17
2022-09-03T17:41:19.108Z,1.95
2022-09-03T17:44:04.571Z,2.25
2022-09-03T17:47:02.626Z,1.52
2022-09-03T17:49:34.255Z,1.60
2022-09-03T17:52:12.237Z,1.88
2022-09-03T17:54:47.959Z,1.63
2022-09-03T17:57:32.402Z,2.40
2022-09-03T18:00:12.437Z,2.10
2022-09-03T18:03:18.231Z,2.22
2022-09-03T18:06:10.056Z,1.98
2022-09-03T18:09:03.669Z,1.80
2022-09-03T18:11:46.887Z,1.40
2022-09-03T18:14:37.918Z,1.80
2022-09-03T18:17:17.678Z,2.25
2022-09-03T18:20:19.158Z,2.25
2022-09-03T18:23:26.116Z,2.00
2022-09-03T18:26:33.285Z,2.35
2022-09-03T18:29:30.234Z,2.25
2022-09-03T18:32:15.623Z,2.28
2022-09-03T18:35:01.281Z,2.30
2022-09-03T18:37:47.496Z,2.70
2022-09-03T18:40:50.232Z,2.60
2022-09-03T18:43:48.819Z,2.55
2022-09-03T18:50:42.802Z,3.10
2022-09-03T18:53:40.793Z,2.90
2022-09-03T18:57:01.375Z,2.60
2022-09-03T19:00:10.206Z,2.47
2022-09-03T19:03:24.480Z,2.40
2022-09-03T19:06:20.448Z,1.92
2022-09-03T19:09:45.318Z,1.80
2022-09-03T19:12:46.617Z,1.77
2022-09-03T19:15:48.644Z,1.85
2022-09-03T19:19:01.775Z,1.88
2022-09-03T19:21:57.799Z,1.98
2022-09-03T19:24:50.889Z,2.13
2022-09-03T19:27:59.259Z,2.10
2022-09-03T19:31:24.538Z,2.15
2022-09-03T19:34:47.368Z,3.15
2022-09-03T19:37:36.984Z,4.25
2022-09-03T19:40:57.976Z,3.92
2022-09-03T19:44:07.242Z,3.40
2022-09-03T19:47:03.107Z,2.33
2022-09-03T19:50:19.467Z,2.20
2022-09-03T19:53:12.965Z,1.77
2022-09-03T19:56:07.358Z,1.77
2022-09-03T19:58:56.998Z,1.90
2022-09-03T20:01:47.928Z,3.30
2022-09-03T20:04:34.845Z,2.50
2022-09-03T20:07:24.845Z,1.98
2022-09-03T20:10:12.330Z,1.70
2022-09-03T20:12:42.445Z,1.80
2022-09-03T20:15:10.029Z,1.58
2022-09-03T20:18:02.258Z,1.75
2022-09-03T20:20:48.011Z,2.22
2022-09-03T20:23:30.522Z,2.63
2022-09-03T20:26:12.170Z,1.90
2022-09-03T20:29:02.523Z,2.72
2022-09-03T20:31:58.778Z,2.92
2022-09-03T20:34:46.543Z,2.70
2022-09-03T20:37:25.073Z,2.97
2022-09-03T20:40:16.882Z,3.05
2022-09-03T20:42:52.674Z,2.92
2022-09-03T20:45:26.774Z,3.10
2022-09-03T20:48:22.138Z,2.88
2022-09-03T20:51:17.568Z,2.90
2022-09-03T20:54:17.584Z,2.53
2022-09-03T20:57:02.303Z,2.30
2022-09-03T20:59:48.665Z,1.95
2022-09-03T21:02:27.355Z,2.25
2022-09-03T21:05:43.289Z,2.00
2022-09-03T21:08:40.619Z,2.42
2022-09-03T21:11:29.464Z,2.40
2022-09-03T21:14:21.048Z,2.22
2022-09-03T21:17:18.892Z,2.20
2022-09-03T21:20:12.717Z,2.67
2022-09-03T21:22:54.658Z,1.75
2022-09-03T21:25:25.588Z,2.38
2022-09-03T21:28:02.756Z,2.13
2022-09-03T21:30:31.695Z,2.28
2022-09-03T21:33:33.387Z,2.10
2022-09-03T21:36:15.749Z,2.30
2022-09-03T21:38:49.273Z,2.10
2022-09-03T21:41:31.942Z,2.40
2022-09-03T21:44:05.346Z,2.15
2022-09-03T21:46:37.870Z,2.40
2022-09-03T21:49:15.976Z,2.40
2022-09-03T21:52:07.878Z,2.30
2022-09-03T21:54:35.404Z,2.13
2022-09-03T21:57:22.122Z,2.10
2022-09-03T22:00:04.779Z,2.45
2022-09-03T22:02:32.872Z,2.67
2022-09-03T22:05:01.189Z,2.17
2022-09-03T22:08:02.306Z,2.55
2022-09-03T22:10:38.107Z,2.40
2022-09-03T22:13:31.250Z,2.30
2022-09-03T22:16:06.185Z,2.17
2022-09-03T22:18:35.866Z,2.10
2022-09-03T22:21:53.406Z,2.00
2022-09-03T22:24:34.322Z,2.20
2022-09-03T22:27:12.170Z,2.30
2022-09-03T22:30:03.346Z,2.20
2022-09-03T22:33:01.244Z,2.10
2022-09-03T22:35:37.378Z,2.38
2022-09-03T22:38:13.096Z,2.15
2022-09-03T22:40:54.094Z,2.00
2022-09-03T22:43:49.812Z,2.20
2022-09-03T22:46:22.583Z,2.17
2022-09-03T22:48:52.114Z,2.15
2022-09-03T22:51:21.780Z,2.10
2022-09-03T22:53:51.449Z,2.20
2022-09-03T22:56:22.311Z,2.40
2022-09-03T22:59:09.860Z,2.55
2022-09-03T23:01:48.991Z,2.80
2022-09-03T23:04:29.244Z,2.40
2022-09-03T23:07:11.539Z,3.13
2022-09-03T23:09:42.346Z,3.17
2022-09-03T23:12:20.242Z,3.10
2022-09-03T23:14:53.750Z,3.50
2022-09-03T23:22:42.478Z,2.78
2022-09-03T23:25:19.509Z,3.08
2022-09-03T23:27:59.292Z,2.78
2022-09-03T23:30:26.217Z,3.00
2022-09-03T23:32:57.290Z,3.08
2022-09-03T23:35:28.751Z,2.97
2022-09-03T23:38:24.753Z,3.30
2022-09-03T23:40:59.798Z,3.13
2022-09-03T23:43:38.458Z,3.15
2022-09-03T23:46:34.436Z,3.25
2022-09-03T23:49:21.993Z,2.45
2022-09-03T23:52:13.921Z,2.97
2022-09-03T23:55:17.258Z,2.85
2022-09-03T23:58:03.530Z,2.65
